Time;durP1;ratioP1;P1;durP2;ratioP2;P2;SDS_P1;SDS_P2;PMS_P1;PMS_P2;Temp;Humidity;BMP_temperature;BMP_pressure;BME280_temperature;BME280_humidity;BME280_pressure;Samples;Min_cycle;Max_cycle;Signal;HPM_P1;HPM_P2
2022/09/01 00:00:32;;;;;;;;;;;;;;;21.44;51.15;101892.84;1029672;28;701;-71
2022/09/01 00:01:25;;;;;;;;;;;;;;;21.40;51.31;101885.97;1029570;28;630;-71
2022/09/01 00:02:16;;;;;;;;;;;;;;;21.41;51.34;101893.13;1029624;28;710;-71
2022/09/01 00:03:06;;;;;;;;;;;;;;;21.41;51.33;101877.69;1025510;28;1381;-71
2022/09/01 00:04:03;;;;;;;;;;;;;;;21.42;51.56;101883.97;1021360;29;627;-71
2022/09/01 00:04:57;;;;;;;;;;;;;;;21.41;51.43;101884.97;1025064;29;718;-71
2022/09/01 00:05:49;;;;;;;;;;;;;;;21.38;51.58;101882.56;1025145;29;683;-71
2022/09/01 00:06:41;;;;;;;;;;;;;;;21.35;51.51;101882.84;1024917;29;706;-71
2022/09/01 00:07:33;;;;;;;;;;;;;;;21.36;51.66;101885.41;1025107;29;699;-72
2022/09/01 00:08:24;;;;;;;;;;;;;;;21.37;51.43;101888.97;1025039;29;600;-72
2022/09/01 00:09:14;;;;;;;;;;;;;;;21.36;51.73;101879.97;1024594;29;643;-72
2022/09/01 00:10:04;;;;;;;;;;;;;;;21.36;51.46;101879.97;1024381;29;636;-72
2022/09/01 00:10:55;;;;;;;;;;;;;;;21.36;51.43;101876.41;1024581;29;669;-70
2022/09/01 00:11:45;;;;;;;;;;;;;;;21.35;51.71;101882.84;1024423;29;660;-71
2022/09/01 00:12:36;;;;;;;;;;;;;;;21.36;51.56;101879.13;1024563;29;699;-71
2022/09/01 00:13:30;;;;;;;;;;;;;;;21.34;51.58;101881.97;1024277;29;1948;-70
2022/09/01 00:14:20;;;;;;;;;;;;;;;21.34;52.07;101881.13;1024977;29;726;-70
2022/09/01 00:15:11;;;;;;;;;;;;;;;21.33;51.56;101880.25;1025598;28;1491;-71
2022/09/01 00:16:02;;;;;;;;;;;;;;;21.34;51.32;101878.41;1028610;28;646;-71
2022/09/01 00:16:53;;;;;;;;;;;;;;;21.31;51.60;101876.00;1026307;28;794;-72
2022/09/01 00:17:43;;;;;;;;;;;;;;;21.31;51.92;101876.00;1024845;28;691;-70
2022/09/01 00:18:34;;;;;;;;;;;;;;;21.30;51.97;101872.44;1029005;28;684;-71
2022/09/01 00:19:25;;;;;;;;;;;;;;;21.31;51.57;101876.00;1028919;28;685;-72
2022/09/01 00:20:15;;;;;;;;;;;;;;;21.31;51.63;101867.88;1028671;28;659;-71
2022/09/01 00:21:06;;;;;;;;;;;;;;;21.31;51.80;101876.88;1028385;28;701;-72
2022/09/01 00:21:56;;;;;;;;;;;;;;;21.31;51.72;101874.16;1028629;28;714;-71
2022/09/01 00:22:46;;;;;;;;;;;;;;;21.31;51.79;101874.16;1028291;28;683;-71
2022/09/01 00:23:37;;;;;;;;;;;;;;;21.29;51.64;101869.88;1028368;28;690;-71
2022/09/01 00:24:27;;;;;;;;;;;;;;;21.27;51.78;101872.72;1028323;28;702;-70
2022/09/01 00:25:18;;;;;;;;;;;;;;;21.27;51.89;101864.59;1028415;28;631;-70
2022/09/01 00:26:09;;;;;;;;;;;;;;;21.26;52.16;101870.16;1029106;28;745;-71
2022/09/01 00:26:59;;;;;;;;;;;;;;;21.25;51.94;101869.31;1028295;28;643;-70
2022/09/01 00:27:50;;;;;;;;;;;;;;;21.24;51.97;101870.31;1028297;28;655;-71
2022/09/01 00:28:40;;;;;;;;;;;;;;;21.24;52.03;101875.72;1028801;28;662;-71
2022/09/01 00:29:31;;;;;;;;;;;;;;;21.24;51.91;101875.72;1028655;28;662;-71
2022/09/01 00:30:21;;;;;;;;;;;;;;;21.23;52.11;101875.88;1028218;28;639;-71
2022/09/01 00:31:13;;;;;;;;;;;;;;;21.24;52.04;101874.88;1024672;29;709;-71
2022/09/01 00:32:04;;;;;;;;;;;;;;;21.23;51.93;101874.00;1023523;29;730;-71
2022/09/01 00:32:54;;;;;;;;;;;;;;;21.24;52.06;101869.44;1029414;28;1611;-71
2022/09/01 00:33:44;;;;;;;;;;;;;;;21.23;52.18;101868.59;1028764;28;1906;-71
2022/09/01 00:34:35;;;;;;;;;;;;;;;21.20;51.87;101873.44;1028493;28;721;-71
2022/09/01 00:35:25;;;;;;;;;;;;;;;21.22;52.11;101876.84;1028202;28;611;-72
2022/09/01 00:36:16;;;;;;;;;;;;;;;21.21;51.95;101870.59;1028428;28;713;-72
2022/09/01 00:37:06;;;;;;;;;;;;;;;21.22;52.06;101876.84;1028460;28;725;-71
2022/09/01 00:37:57;;;;;;;;;;;;;;;21.21;52.03;101869.72;1028278;28;717;-71
2022/09/01 00:38:47;;;;;;;;;;;;;;;21.21;51.93;101869.72;1028465;28;663;-71
2022/09/01 00:39:37;;;;;;;;;;;;;;;21.20;52.06;101873.44;1028907;28;714;-71
2022/09/01 00:40:28;;;;;;;;;;;;;;;21.21;52.05;101867.00;1028399;28;654;-72
2022/09/01 00:41:18;;;;;;;;;;;;;;;21.22;52.00;101868.72;1028898;28;659;-72
2022/09/01 00:42:09;;;;;;;;;;;;;;;21.22;52.05;101872.28;1028209;28;534;-72
2022/09/01 00:42:59;;;;;;;;;;;;;;;21.21;51.68;101865.16;1029485;28;618;-72
2022/09/01 00:43:50;;;;;;;;;;;;;;;21.19;51.74;101872.53;1028454;28;647;-71
2022/09/01 00:44:40;;;;;;;;;;;;;;;21.19;52.09;101866.25;1028286;28;630;-72
2022/09/01 00:45:31;;;;;;;;;;;;;;;21.19;51.83;101863.56;1028426;28;714;-71
2022/09/01 00:46:21;;;;;;;;;;;;;;;21.18;52.16;101869.97;1028408;28;710;-72
2022/09/01 00:47:12;;;;;;;;;;;;;;;21.18;51.71;101864.56;1024945;29;615;-72
2022/09/01 00:48:04;;;;;;;;;;;;;;;21.18;51.78;101868.13;1024836;29;636;-71
2022/09/01 00:48:55;;;;;;;;;;;;;;;21.18;52.00;101862.69;1024840;29;647;-71
2022/09/01 00:49:45;;;;;;;;;;;;;;;21.15;52.18;101863.84;1024383;29;698;-71
2022/09/01 00:50:36;;;;;;;;;;;;;;;21.14;52.37;101859.41;1024192;29;611;-71
2022/09/01 00:51:26;;;;;;;;;;;;;;;21.15;52.00;101871.09;1025441;28;721;-71
2022/09/01 00:52:16;;;;;;;;;;;;;;;21.16;51.97;101861.97;1025066;28;627;-71
2022/09/01 00:53:07;;;;;;;;;;;;;;;21.14;52.17;101866.69;1032440;28;1195;-71
2022/09/01 00:53:57;;;;;;;;;;;;;;;21.13;51.86;101863.16;1032930;28;646;-71
2022/09/01 00:54:48;;;;;;;;;;;;;;;21.12;52.00;101861.44;1028995;28;669;-71
2022/09/01 00:55:38;;;;;;;;;;;;;;;21.12;51.85;101861.44;1029160;28;650;-71
2022/09/01 00:56:29;;;;;;;;;;;;;;;21.12;52.28;101861.44;1032751;28;716;-71
2022/09/01 00:57:19;;;;;;;;;;;;;;;21.13;52.38;101860.44;1031589;28;630;-71
2022/09/01 00:58:10;;;;;;;;;;;;;;;21.12;52.39;101864.16;1031683;28;623;-71
2022/09/01 00:59:00;;;;;;;;;;;;;;;21.12;52.14;101861.44;1032342;28;666;-72
2022/09/01 00:59:50;;;;;;;;;;;;;;;21.10;52.07;101858.00;1029106;28;693;-70
2022/09/01 01:00:41;;;;;;;;;;;;;;;21.08;52.22;101853.72;1029121;28;657;-71
2022/09/01 01:01:33;;;;;;;;;;;;;;;21.09;52.14;101860.88;1028454;28;635;-71
2022/09/01 01:02:24;;;;;;;;;;;;;;;21.09;52.28;101853.59;1030542;28;1435;-71
2022/09/01 01:03:14;;;;;;;;;;;;;;;21.07;52.14;101863.72;1024098;29;797;-71
2022/09/01 01:04:05;;;;;;;;;;;;;;;21.08;52.37;101853.72;1025136;28;694;-71
2022/09/01 01:04:58;;;;;;;;;;;;;;;21.08;52.08;101854.59;1025061;28;940;-71
2022/09/01 01:05:53;;;;;;;;;;;;;;;21.09;52.03;101850.03;1024813;29;714;-71
2022/09/01 01:06:48;;;;;;;;;;;;;;;21.07;52.18;101850.16;1024248;29;744;-70
2022/09/01 01:07:41;;;;;;;;;;;;;;;21.09;52.11;101855.44;1024846;29;648;-70
2022/09/01 01:08:32;;;;;;;;;;;;;;;21.07;52.18;101852.88;1024803;29;655;-71
2022/09/01 01:09:23;;;;;;;;;;;;;;;21.08;52.05;101842.88;1024718;29;689;-71
2022/09/01 01:10:14;;;;;;;;;;;;;;;21.09;52.22;101844.59;1025045;28;745;-71
2022/09/01 01:11:05;;;;;;;;;;;;;;;21.08;52.08;101843.75;1025024;28;622;-71
2022/09/01 01:11:58;;;;;;;;;;;;;;;21.08;52.07;101848.31;1021034;29;690;-71
2022/09/01 01:12:50;;;;;;;;;;;;;;;21.10;52.06;101851.72;1021039;29;671;-71
2022/09/01 01:13:41;;;;;;;;;;;;;;;21.09;51.86;101845.44;1024569;29;1957;-71
2022/09/01 01:14:32;;;;;;;;;;;;;;;21.07;52.07;101850.16;1024767;29;682;-71
2022/09/01 01:15:23;;;;;;;;;;;;;;;21.06;52.17;101850.31;1025043;28;651;-70
2022/09/01 01:16:14;;;;;;;;;;;;;;;21.05;52.26;101854.88;1025028;28;658;-70
2022/09/01 01:17:05;;;;;;;;;;;;;;;21.05;52.16;101852.16;1021036;29;647;-71
2022/09/01 01:17:55;;;;;;;;;;;;;;;21.04;52.22;101853.16;1021983;28;655;-72
2022/09/01 01:18:46;;;;;;;;;;;;;;;21.04;52.11;101853.16;1027305;28;1422;-71
2022/09/01 01:23:04;;;;;;;;;;;;;;;21.04;52.08;101857.72;1028696;28;690;-71
2022/09/01 01:23:55;;;;;;;;;;;;;;;21.04;52.29;101844.16;1029150;28;736;-71
2022/09/01 01:24:46;;;;;;;;;;;;;;;21.01;52.15;101852.56;1029303;28;701;-71
2022/09/01 01:25:37;;;;;;;;;;;;;;;21.02;52.33;101854.28;1028624;28;635;-72
2022/09/01 01:26:27;;;;;;;;;;;;;;;21.03;51.95;101847.88;1028275;28;667;-72
2022/09/01 01:27:20;;;;;;;;;;;;;;;21.03;52.10;101856.00;1028274;28;1235;-71
2022/09/01 01:28:11;;;;;;;;;;;;;;;21.02;52.24;101844.31;1027735;28;682;-71
2022/09/01 01:29:01;;;;;;;;;;;;;;;21.02;52.21;101844.31;1029772;28;631;-71
2022/09/01 01:29:53;;;;;;;;;;;;;;;21.01;52.33;101842.59;1029042;28;651;-71
2022/09/01 01:30:44;;;;;;;;;;;;;;;21.02;52.40;101844.31;1028597;28;774;-71
2022/09/01 01:31:34;;;;;;;;;;;;;;;21.01;52.27;101849.88;1028262;28;698;-71
2022/09/01 01:32:25;;;;;;;;;;;;;;;21.01;52.39;101844.44;1028153;28;690;-71
2022/09/01 01:33:16;;;;;;;;;;;;;;;21.00;52.41;101840.88;1028306;28;701;-71
2022/09/01 01:34:06;;;;;;;;;;;;;;;21.00;52.58;101840.88;1029018;28;682;-72
2022/09/01 01:34:57;;;;;;;;;;;;;;;21.00;52.34;101838.16;1024542;29;647;-71
2022/09/01 01:35:47;;;;;;;;;;;;;;;20.99;52.59;101839.16;1024258;29;662;-72
2022/09/01 01:36:40;;;;;;;;;;;;;;;20.99;52.39;101846.44;1026024;28;1503;-72
2022/09/01 01:37:31;;;;;;;;;;;;;;;20.99;52.75;101839.16;1025230;28;670;-71
2022/09/01 01:38:22;;;;;;;;;;;;;;;20.98;52.49;101840.16;1025135;28;649;-72
2022/09/01 01:39:12;;;;;;;;;;;;;;;20.98;52.36;101845.56;1026610;28;662;-72
2022/09/01 01:40:02;;;;;;;;;;;;;;;21.00;52.17;101856.28;1026441;28;698;-72
2022/09/01 01:40:55;;;;;;;;;;;;;;;20.99;52.41;101841.88;1026278;28;631;-72
2022/09/01 01:41:47;;;;;;;;;;;;;;;20.98;52.79;101847.44;1025978;28;667;-71
2022/09/01 01:42:38;;;;;;;;;;;;;;;20.96;52.48;101846.75;1025154;28;656;-72
2022/09/01 01:43:28;;;;;;;;;;;;;;;20.96;52.56;101847.56;1026286;28;670;-72
2022/09/01 01:44:18;;;;;;;;;;;;;;;20.96;52.61;101844.03;1026619;28;690;-72
2022/09/01 01:45:11;;;;;;;;;;;;;;;20.94;52.76;101846.88;1026325;28;634;-72
2022/09/01 01:46:04;;;;;;;;;;;;;;;20.94;52.84;101852.31;1025119;28;623;-72
2022/09/01 01:46:54;;;;;;;;;;;;;;;20.95;52.41;101847.75;1025587;28;662;-72
2022/09/01 01:47:50;;;;;;;;;;;;;;;20.95;52.85;101848.59;1020886;29;627;-72
2022/09/01 01:48:40;;;;;;;;;;;;;;;20.94;52.43;101846.88;1020918;29;651;-72
2022/09/01 01:49:31;;;;;;;;;;;;;;;20.94;52.36;101844.19;1025308;28;823;-72
2022/09/01 01:50:22;;;;;;;;;;;;;;;20.94;52.85;101846.88;1029673;28;705;-72
2022/09/01 01:51:13;;;;;;;;;;;;;;;20.93;52.47;101842.47;1028600;28;713;-70
2022/09/01 01:52:03;;;;;;;;;;;;;;;20.94;52.37;101844.19;1025080;28;647;-70
2022/09/01 01:52:56;;;;;;;;;;;;;;;20.94;52.65;101833.34;1027178;28;1238;-70
2022/09/01 01:53:51;;;;;;;;;;;;;;;20.92;52.99;101848.88;1032111;28;1957;-71
2022/09/01 01:54:41;;;;;;;;;;;;;;;20.91;52.75;101849.88;1032324;28;705;-71
2022/09/01 01:55:32;;;;;;;;;;;;;;;20.91;52.52;101847.16;1031476;28;718;-71
2022/09/01 01:56:25;;;;;;;;;;;;;;;20.90;52.80;101842.75;1031836;28;714;-71
2022/09/01 01:57:16;;;;;;;;;;;;;;;20.90;52.41;101856.28;1031322;28;694;-71
2022/09/01 01:58:08;;;;;;;;;;;;;;;20.90;52.59;101842.75;1030352;28;1474;-71
2022/09/01 01:59:00;;;;;;;;;;;;;;;20.92;52.81;101848.03;1029077;28;670;-72
2022/09/01 01:59:52;;;;;;;;;;;;;;;20.92;52.71;101842.59;1029095;28;678;-71
2022/09/01 02:00:43;;;;;;;;;;;;;;;20.91;52.68;101847.16;1029162;28;674;-72
2022/09/01 02:01:33;;;;;;;;;;;;;;;20.92;52.73;101854.31;1029343;28;658;-71
2022/09/01 02:02:24;;;;;;;;;;;;;;;20.92;52.31;101850.72;1029063;28;646;-71
2022/09/01 02:03:18;;;;;;;;;;;;;;;20.91;52.66;101855.28;1025839;28;670;-72
2022/09/01 02:04:09;;;;;;;;;;;;;;;20.90;52.45;101850.88;1026060;28;653;-72
2022/09/01 02:05:00;;;;;;;;;;;;;;;20.90;52.80;101844.59;1029665;28;694;-72
2022/09/01 02:05:50;;;;;;;;;;;;;;;20.90;52.39;101845.44;1026087;28;1377;-70
2022/09/01 02:06:44;;;;;;;;;;;;;;;20.91;52.93;101846.31;1024872;28;670;-72
2022/09/01 02:07:36;;;;;;;;;;;;;;;20.89;52.89;101849.16;1024776;28;699;-72
2022/09/01 02:08:27;;;;;;;;;;;;;;;20.89;52.76;101842.88;1024522;29;662;-72
2022/09/01 02:09:17;;;;;;;;;;;;;;;20.89;52.86;101859.13;1024116;29;679;-71
2022/09/01 02:10:07;;;;;;;;;;;;;;;20.90;52.41;101850.00;1023888;29;742;-72
2022/09/01 02:10:59;;;;;;;;;;;;;;;20.88;52.62;101844.72;1024015;29;643;-72
2022/09/01 02:11:53;;;;;;;;;;;;;;;20.88;52.96;101847.44;1024495;29;678;-72
2022/09/01 02:12:45;;;;;;;;;;;;;;;20.89;52.53;101848.31;1024614;29;659;-72
2022/09/01 02:13:35;;;;;;;;;;;;;;;20.86;52.64;101846.72;1024188;29;1894;-72
2022/09/01 02:14:26;;;;;;;;;;;;;;;20.87;52.68;101848.44;1024026;29;620;-72
2022/09/01 02:15:16;;;;;;;;;;;;;;;20.86;52.85;101849.44;1024134;29;757;-72
2022/09/01 02:16:10;;;;;;;;;;;;;;;20.86;52.55;101854.00;1023816;29;651;-72
2022/09/01 02:17:02;;;;;;;;;;;;;;;20.86;52.70;101849.44;1024829;28;663;-71
2022/09/01 02:17:59;;;;;;;;;;;;;;;20.85;52.58;101850.44;1024738;28;733;-71
2022/09/01 02:18:50;;;;;;;;;;;;;;;20.84;52.56;101846.00;1025688;28;706;-71
2022/09/01 02:19:41;;;;;;;;;;;;;;;20.84;52.59;101848.72;1024067;29;674;-71
2022/09/01 02:20:32;;;;;;;;;;;;;;;20.84;52.96;101847.88;1024487;29;653;-71
2022/09/01 02:21:22;;;;;;;;;;;;;;;20.83;52.79;101849.72;1024068;29;667;-71
2022/09/01 02:22:13;;;;;;;;;;;;;;;20.85;52.51;101846.88;1025326;28;654;-71
2022/09/01 02:23:10;;;;;;;;;;;;;;;20.84;52.62;101846.00;1024799;28;784;-71
2022/09/01 02:24:01;;;;;;;;;;;;;;;20.85;52.73;101852.28;1025645;28;650;-71
2022/09/01 02:24:52;;;;;;;;;;;;;;;20.82;52.91;101845.28;1024716;28;694;-71
2022/09/01 02:25:43;;;;;;;;;;;;;;;20.82;52.81;101847.16;1024761;28;733;-71
2022/09/01 02:26:34;;;;;;;;;;;;;;;20.82;52.74;101847.16;1024481;29;1122;-71
2022/09/01 02:27:28;;;;;;;;;;;;;;;20.80;53.15;101850.84;1024394;29;1286;-71
2022/09/01 02:28:20;;;;;;;;;;;;;;;20.80;52.66;101852.69;1024080;28;668;-71
2022/09/01 02:29:16;;;;;;;;;;;;;;;20.82;53.06;101849.84;1024688;29;639;-71
2022/09/01 02:30:11;;;;;;;;;;;;;;;20.81;52.92;101857.13;1024448;29;635;-71
2022/09/01 02:31:02;;;;;;;;;;;;;;;20.81;53.08;101851.72;1024478;29;651;-70
2022/09/01 02:31:53;;;;;;;;;;;;;;;20.79;52.79;101851.84;1024555;29;687;-71
2022/09/01 02:32:43;;;;;;;;;;;;;;;20.80;53.19;101850.00;1025557;28;623;-71
2022/09/01 02:33:33;;;;;;;;;;;;;;;20.81;52.77;101857.13;1025527;28;1914;-71
2022/09/01 02:34:24;;;;;;;;;;;;;;;20.79;53.05;101853.69;1025570;28;646;-70
2022/09/01 02:35:15;;;;;;;;;;;;;;;20.80;52.75;101850.00;1024387;29;623;-71
2022/09/01 02:36:05;;;;;;;;;;;;;;;20.78;52.83;101846.59;1024476;29;644;-71
2022/09/01 02:36:56;;;;;;;;;;;;;;;20.77;52.79;101847.59;1025655;28;643;-71
2022/09/01 02:37:50;;;;;;;;;;;;;;;20.77;52.64;101855.72;1025876;28;1441;-71
2022/09/01 02:38:44;;;;;;;;;;;;;;;20.77;52.90;101847.59;1024503;29;802;-71
2022/09/01 02:39:35;;;;;;;;;;;;;;;20.76;52.67;101849.44;1025352;28;1492;-71
2022/09/01 02:40:29;;;;;;;;;;;;;;;20.76;53.15;101848.59;1023989;29;662;-71
2022/09/01 02:41:20;;;;;;;;;;;;;;;20.77;52.88;101850.31;1024732;28;678;-70
2022/09/01 02:42:15;;;;;;;;;;;;;;;20.77;52.74;101850.31;1024123;29;710;-71
2022/09/01 02:43:05;;;;;;;;;;;;;;;20.74;52.90;101848.72;1020687;29;742;-70
2022/09/01 02:43:56;;;;;;;;;;;;;;;20.75;53.14;101849.59;1021998;28;652;-71
2022/09/01 02:44:46;;;;;;;;;;;;;;;20.74;53.08;101850.59;1024617;29;689;-71
2022/09/01 02:45:36;;;;;;;;;;;;;;;20.75;52.90;101853.16;1023803;29;777;-71
2022/09/01 02:46:28;;;;;;;;;;;;;;;20.74;52.99;101851.44;1024771;28;674;-71
2022/09/01 02:47:18;;;;;;;;;;;;;;;20.75;53.17;101850.44;1024618;28;701;-71
2022/09/01 02:48:09;;;;;;;;;;;;;;;20.74;53.19;101856.00;1024487;29;693;-71
2022/09/01 02:49:00;;;;;;;;;;;;;;;20.73;52.57;101849.72;1024389;29;690;-70
2022/09/01 02:49:50;;;;;;;;;;;;;;;20.74;53.18;101851.44;1024568;29;670;-70
2022/09/01 02:50:41;;;;;;;;;;;;;;;20.73;52.97;101843.44;1023848;29;656;-71
2022/09/01 02:51:32;;;;;;;;;;;;;;;20.73;52.95;101844.31;1024730;28;862;-71
2022/09/01 02:52:22;;;;;;;;;;;;;;;20.73;52.67;101848.88;1024761;29;741;-71
2022/09/01 02:53:14;;;;;;;;;;;;;;;20.72;52.64;101842.59;1028406;28;729;-71
2022/09/01 02:54:05;;;;;;;;;;;;;;;20.71;52.62;101848.16;1025604;28;697;-71
2022/09/01 02:54:56;;;;;;;;;;;;;;;20.72;52.96;101849.84;1025570;28;669;-71
2022/09/01 02:55:47;;;;;;;;;;;;;;;20.71;52.86;101845.44;1024357;29;647;-71
2022/09/01 02:56:37;;;;;;;;;;;;;;;20.72;52.75;101847.16;1026126;28;668;-71
2022/09/01 02:57:28;;;;;;;;;;;;;;;20.70;52.85;101849.13;1025937;28;654;-71
2022/09/01 02:58:18;;;;;;;;;;;;;;;20.69;52.80;101842.00;1024637;28;672;-71
2022/09/01 02:59:11;;;;;;;;;;;;;;;20.68;52.63;101841.16;1020807;29;647;-72
2022/09/01 03:00:02;;;;;;;;;;;;;;;20.69;52.58;101848.28;1021206;28;660;-72
2022/09/01 03:00:53;;;;;;;;;;;;;;;20.70;52.92;101843.72;1025608;28;706;-72
2022/09/01 03:01:46;;;;;;;;;;;;;;;20.69;52.85;101836.59;1025544;28;650;-71
2022/09/01 03:02:36;;;;;;;;;;;;;;;20.69;53.01;101836.59;1025984;28;722;-71
2022/09/01 03:03:27;;;;;;;;;;;;;;;20.68;52.63;101832.16;1026327;28;607;-72
2022/09/01 03:04:17;;;;;;;;;;;;;;;20.68;52.69;101837.59;1025701;28;714;-71
2022/09/01 03:05:08;;;;;;;;;;;;;;;20.67;53.00;101834.03;1026112;28;759;-71
2022/09/01 03:06:00;;;;;;;;;;;;;;;20.68;52.64;101840.28;1025712;28;630;-71
2022/09/01 03:06:51;;;;;;;;;;;;;;;20.67;52.71;101831.31;1024769;28;717;-72
2022/09/01 03:07:41;;;;;;;;;;;;;;;20.66;53.07;101837.72;1025698;28;706;-71
2022/09/01 03:08:35;;;;;;;;;;;;;;;20.66;52.74;101840.44;1025849;28;654;-72
2022/09/01 03:09:26;;;;;;;;;;;;;;;20.66;52.98;101834.16;1028052;28;1360;-72
2022/09/01 03:10:17;;;;;;;;;;;;;;;20.64;52.60;101831.59;1028892;28;674;-72
2022/09/01 03:11:09;;;;;;;;;;;;;;;20.65;52.89;101835.16;1029256;28;765;-72
2022/09/01 03:12:00;;;;;;;;;;;;;;;20.65;52.72;101837.88;1029026;28;678;-72
2022/09/01 03:12:50;;;;;;;;;;;;;;;20.65;52.75;101832.44;1028932;28;670;-72
2022/09/01 03:13:41;;;;;;;;;;;;;;;20.65;53.03;101840.56;1028687;28;1890;-72
2022/09/01 03:14:31;;;;;;;;;;;;;;;20.64;52.85;101838.84;1028435;28;722;-71
2022/09/01 03:15:23;;;;;;;;;;;;;;;20.63;52.59;101839.84;1028340;28;655;-71
2022/09/01 03:16:14;;;;;;;;;;;;;;;20.63;52.73;101837.16;1029117;28;647;-71
2022/09/01 03:17:05;;;;;;;;;;;;;;;20.63;52.96;101838.00;1028992;28;936;-71
2022/09/01 03:17:56;;;;;;;;;;;;;;;20.63;52.92;101837.16;1028552;28;714;-71
2022/09/01 03:18:48;;;;;;;;;;;;;;;20.62;52.67;101827.31;1028950;28;698;-71
2022/09/01 03:19:44;;;;;;;;;;;;;;;20.62;53.11;101838.13;1028918;28;566;-71
2022/09/01 03:20:34;;;;;;;;;;;;;;;20.62;53.13;101838.13;1025140;28;699;-72
2022/09/01 03:21:25;;;;;;;;;;;;;;;20.62;52.81;101838.13;1024718;28;650;-71
2022/09/01 03:22:15;;;;;;;;;;;;;;;20.61;52.51;101837.28;1028424;28;717;-72
2022/09/01 03:23:07;;;;;;;;;;;;;;;20.60;52.94;101835.56;1028362;28;889;-72
2022/09/01 03:24:00;;;;;;;;;;;;;;;20.60;53.12;101834.75;1029081;28;713;-72
2022/09/01 03:24:51;;;;;;;;;;;;;;;20.59;53.32;101828.47;1028298;28;1499;-72
2022/09/01 03:25:41;;;;;;;;;;;;;;;20.58;52.95;101842.16;1028298;28;698;-72
2022/09/01 03:26:32;;;;;;;;;;;;;;;20.59;52.43;101836.59;1028746;28;708;-71
2022/09/01 03:27:22;;;;;;;;;;;;;;;20.58;53.14;101837.59;1028209;28;1270;-71
2022/09/01 03:28:12;;;;;;;;;;;;;;;20.59;52.61;101827.63;1027961;28;714;-71
2022/09/01 03:29:03;;;;;;;;;;;;;;;20.59;53.02;101830.31;1027708;28;647;-71
2022/09/01 03:29:53;;;;;;;;;;;;;;;20.59;52.89;101833.03;1027886;28;717;-71
2022/09/01 03:30:44;;;;;;;;;;;;;;;20.60;52.76;101832.03;1029001;28;943;-71
2022/09/01 03:31:34;;;;;;;;;;;;;;;20.57;52.56;101826.91;1028618;28;730;-71
2022/09/01 03:32:25;;;;;;;;;;;;;;;20.58;52.34;101837.59;1028501;28;777;-71
2022/09/01 03:33:15;;;;;;;;;;;;;;;20.55;52.57;101831.59;1029244;28;686;-71
2022/09/01 03:34:09;;;;;;;;;;;;;;;20.56;53.00;101833.31;1029168;28;698;-71
2022/09/01 03:35:00;;;;;;;;;;;;;;;20.54;52.62;101830.72;1028988;28;636;-71
2022/09/01 03:35:50;;;;;;;;;;;;;;;20.54;52.84;101828.03;1028983;28;673;-71
2022/09/01 03:36:48;;;;;;;;;;;;;;;20.55;52.38;101824.31;1026545;28;650;-71
2022/09/01 03:37:43;;;;;;;;;;;;;;;20.53;52.59;101828.16;1025905;28;702;-71
2022/09/01 03:38:33;;;;;;;;;;;;;;;20.54;52.93;101829.88;1030273;28;627;-72
2022/09/01 03:39:23;;;;;;;;;;;;;;;20.52;52.90;101829.16;1028628;28;690;-71
2022/09/01 03:40:14;;;;;;;;;;;;;;;20.53;52.51;101830.88;1028115;28;1565;-71
2022/09/01 03:41:05;;;;;;;;;;;;;;;20.54;52.73;101829.88;1029127;28;639;-70
2022/09/01 03:41:57;;;;;;;;;;;;;;;20.52;52.55;101829.16;1028701;28;639;-71
2022/09/01 03:42:48;;;;;;;;;;;;;;;20.52;52.46;101821.03;1029635;28;681;-70
2022/09/01 03:43:38;;;;;;;;;;;;;;;20.53;53.08;101820.03;1028487;28;651;-71
2022/09/01 03:44:28;;;;;;;;;;;;;;;20.51;52.52;101827.44;1028670;28;698;-71
2022/09/01 03:45:19;;;;;;;;;;;;;;;20.51;52.81;101816.63;1028560;28;653;-71
2022/09/01 03:46:11;;;;;;;;;;;;;;;20.51;52.61;101816.63;1028601;28;683;-70
2022/09/01 03:47:01;;;;;;;;;;;;;;;20.50;52.86;101829.28;1029689;28;689;-71
2022/09/01 03:47:53;;;;;;;;;;;;;;;20.51;52.53;101828.31;1028657;28;890;-71
2022/09/01 03:48:43;;;;;;;;;;;;;;;20.51;52.42;101827.44;1029102;28;694;-70
2022/09/01 03:49:35;;;;;;;;;;;;;;;20.51;52.69;101816.63;1028303;28;749;-71
2022/09/01 03:50:26;;;;;;;;;;;;;;;20.51;52.94;101819.31;1030275;28;757;-70
2022/09/01 03:51:17;;;;;;;;;;;;;;;20.52;52.60;101812.91;1029041;28;666;-71
2022/09/01 03:52:07;;;;;;;;;;;;;;;20.51;52.81;101814.75;1028663;28;681;-70
2022/09/01 03:52:59;;;;;;;;;;;;;;;20.50;52.86;101814.91;1030994;28;1195;-71
2022/09/01 03:53:49;;;;;;;;;;;;;;;20.50;52.59;101814.91;1032452;28;1945;-71
2022/09/01 03:54:40;;;;;;;;;;;;;;;20.49;52.67;101821.31;1031879;28;690;-71
2022/09/01 03:55:31;;;;;;;;;;;;;;;20.47;52.49;101818.75;1032050;28;663;-72
2022/09/01 03:56:22;;;;;;;;;;;;;;;20.45;52.92;101813.47;1027525;28;1420;-71
2022/09/01 03:57:13;;;;;;;;;;;;;;;20.47;53.17;101815.16;1025259;29;706;-71
2022/09/01 03:58:06;;;;;;;;;;;;;;;20.48;52.69;101811.47;1024586;29;659;-71
2022/09/01 03:58:57;;;;;;;;;;;;;;;20.48;52.83;101820.44;1024458;29;643;-72
2022/09/01 03:59:48;;;;;;;;;;;;;;;20.48;52.67;101822.31;1025219;29;647;-70
2022/09/01 04:00:38;;;;;;;;;;;;;;;20.49;52.71;101815.91;1025077;29;840;-71
2022/09/01 04:01:31;;;;;;;;;;;;;;;20.48;52.97;101811.47;1024549;29;679;-70
2022/09/01 04:02:21;;;;;;;;;;;;;;;20.48;52.41;101816.88;1025092;29;655;-70
2022/09/01 04:03:12;;;;;;;;;;;;;;;20.46;52.36;101817.03;1024392;29;651;-71
2022/09/01 04:04:03;;;;;;;;;;;;;;;20.45;52.96;101818.88;1024537;29;691;-71
2022/09/01 04:04:53;;;;;;;;;;;;;;;20.44;52.67;101821.72;1025061;29;706;-71
2022/09/01 04:05:44;;;;;;;;;;;;;;;20.44;53.03;101817.16;1025548;28;818;-71
2022/09/01 04:06:35;;;;;;;;;;;;;;;20.44;52.15;101811.75;1024891;29;702;-71
2022/09/01 04:07:26;;;;;;;;;;;;;;;20.45;52.99;101818.03;1025597;28;677;-71
2022/09/01 04:08:16;;;;;;;;;;;;;;;20.44;52.53;101817.16;1025005;29;667;-71
2022/09/01 04:09:07;;;;;;;;;;;;;;;20.44;52.32;101816.31;1025548;29;678;-72
2022/09/01 04:09:57;;;;;;;;;;;;;;;20.43;52.79;101820.88;1025334;28;631;-71
2022/09/01 04:10:50;;;;;;;;;;;;;;;20.42;52.64;101813.72;1025262;28;667;-71
2022/09/01 04:11:44;;;;;;;;;;;;;;;20.43;52.56;101812.75;1026897;28;1409;-71
2022/09/01 04:12:35;;;;;;;;;;;;;;;20.43;52.49;101815.44;1028915;28;663;-71
2022/09/01 04:13:26;;;;;;;;;;;;;;;20.43;52.42;101818.16;1028949;28;635;-71
2022/09/01 04:14:16;;;;;;;;;;;;;;;20.42;52.72;101813.72;1028812;28;662;-71
2022/09/01 04:15:07;;;;;;;;;;;;;;;20.42;52.57;101815.63;1030264;28;1500;-71
2022/09/01 04:15:57;;;;;;;;;;;;;;;20.40;52.73;101815.75;1024916;29;725;-70
2022/09/01 04:18:11;;;;;;;;;;;;;;;20.41;52.95;101816.63;1025514;28;675;-70
2022/09/01 04:19:14;;;;;;;;;;;;;;;20.40;52.66;101821.16;1024972;29;662;-70
2022/09/01 04:20:07;;;;;;;;;;;;;;;20.40;52.27;101815.75;1025074;29;643;-70
2022/09/01 04:20:58;;;;;;;;;;;;;;;20.40;52.41;101815.75;1024985;29;635;-70
2022/09/01 04:21:52;;;;;;;;;;;;;;;20.39;52.40;101822.16;1025186;28;633;-70
2022/09/01 04:22:42;;;;;;;;;;;;;;;20.38;52.75;101811.47;1025192;28;654;-70
2022/09/01 04:23:33;;;;;;;;;;;;;;;20.38;52.77;101814.19;1025014;29;670;-70
2022/09/01 04:24:23;;;;;;;;;;;;;;;20.37;52.76;101815.16;1025594;28;733;-69
2022/09/01 04:25:14;;;;;;;;;;;;;;;20.38;52.67;101819.59;1027304;28;1156;-71
2022/09/01 04:26:08;;;;;;;;;;;;;;;20.37;52.31;101816.03;1030192;28;638;-70
2022/09/01 04:27:00;;;;;;;;;;;;;;;20.36;52.41;101819.72;1030191;28;690;-70
2022/09/01 04:27:54;;;;;;;;;;;;;;;20.37;52.75;101823.28;1028811;28;1444;-71
2022/09/01 04:28:44;;;;;;;;;;;;;;;20.37;52.15;101820.59;1025409;28;647;-70
2022/09/01 04:29:35;;;;;;;;;;;;;;;20.36;52.55;101814.31;1024163;29;675;-70
2022/09/01 04:30:30;;;;;;;;;;;;;;;20.36;52.74;101814.31;1024908;29;628;-70
2022/09/01 04:31:21;;;;;;;;;;;;;;;20.37;52.38;101813.31;1024894;29;643;-71
2022/09/01 04:32:11;;;;;;;;;;;;;;;20.34;52.30;101812.69;1024338;29;709;-71
2022/09/01 04:33:02;;;;;;;;;;;;;;;20.34;52.54;101816.28;1024470;29;707;-71
2022/09/01 04:33:52;;;;;;;;;;;;;;;20.35;52.43;101817.13;1024412;29;1910;-72
2022/09/01 04:34:42;;;;;;;;;;;;;;;20.34;52.78;101820.81;1024397;29;656;-72